sensor_id;sensor_type;location;lat;lon;timestamp;P1;durP1;ratioP1;P2;durP2;ratioP2
19446;SDS011;9862;49.462;11.054;2023-02-27T00:01:58;2.95;;;1.65;;
19446;SDS011;9862;49.462;11.054;2023-02-27T00:04:25;4.78;;;1.90;;
19446;SDS011;9862;49.462;11.054;2023-02-27T00:06:52;3.65;;;1.75;;
19446;SDS011;9862;49.462;11.054;2023-02-27T00:09:19;3.42;;;1.65;;
19446;SDS011;9862;49.462;11.054;2023-02-27T00:11:45;2.83;;;1.55;;
19446;SDS011;9862;49.462;11.054;2023-02-27T00:14:13;3.70;;;1.83;;
19446;SDS011;9862;49.462;11.054;2023-02-27T00:16:39;1.73;;;1.50;;
19446;SDS011;9862;49.462;11.054;2023-02-27T00:19:06;3.28;;;1.55;;
19446;SDS011;9862;49.462;11.054;2023-02-27T00:21:32;3.47;;;1.50;;
19446;SDS011;9862;49.462;11.054;2023-02-27T00:23:59;4.93;;;1.60;;
19446;SDS011;9862;49.462;11.054;2023-02-27T00:26:26;2.67;;;1.80;;
19446;SDS011;9862;49.462;11.054;2023-02-27T00:28:52;4.00;;;2.10;;
19446;SDS011;9862;49.462;11.054;2023-02-27T00:31:20;3.55;;;2.35;;
19446;SDS011;9862;49.462;11.054;2023-02-27T00:33:46;4.13;;;1.65;;
19446;SDS011;9862;49.462;11.054;2023-02-27T00:36:13;4.15;;;1.90;;
19446;SDS011;9862;49.462;11.054;2023-02-27T00:38:40;2.72;;;1.90;;
19446;SDS011;9862;49.462;11.054;2023-02-27T00:41:06;2.38;;;1.77;;
19446;SDS011;9862;49.462;11.054;2023-02-27T00:43:33;1.95;;;1.77;;
19446;SDS011;9862;49.462;11.054;2023-02-27T00:46:00;3.92;;;1.95;;
19446;SDS011;9862;49.462;11.054;2023-02-27T00:48:28;6.25;;;1.90;;
19446;SDS011;9862;49.462;11.054;2023-02-27T00:50:55;1.95;;;1.70;;
19446;SDS011;9862;49.462;11.054;2023-02-27T00:53:21;2.70;;;1.58;;
19446;SDS011;9862;49.462;11.054;2023-02-27T00:55:48;3.55;;;1.60;;
19446;SDS011;9862;49.462;11.054;2023-02-27T00:58:14;4.35;;;1.90;;
19446;SDS011;9862;49.462;11.054;2023-02-27T01:00:41;2.33;;;1.80;;
19446;SDS011;9862;49.462;11.054;2023-02-27T01:03:08;1.88;;;1.30;;
19446;SDS011;9862;49.462;11.054;2023-02-27T01:05:36;3.17;;;1.60;;
19446;SDS011;9862;49.462;11.054;2023-02-27T01:08:02;3.75;;;1.60;;
19446;SDS011;9862;49.462;11.054;2023-02-27T01:10:29;6.85;;;2.33;;
19446;SDS011;9862;49.462;11.054;2023-02-27T01:12:56;3.75;;;1.60;;
19446;SDS011;9862;49.462;11.054;2023-02-27T01:15:22;5.05;;;2.30;;
19446;SDS011;9862;49.462;11.054;2023-02-27T01:17:49;4.88;;;2.10;;
19446;SDS011;9862;49.462;11.054;2023-02-27T01:20:15;2.47;;;1.60;;
19446;SDS011;9862;49.462;11.054;2023-02-27T01:22:43;4.93;;;1.52;;
19446;SDS011;9862;49.462;11.054;2023-02-27T01:25:10;2.30;;;1.70;;
19446;SDS011;9862;49.462;11.054;2023-02-27T01:27:36;4.20;;;1.85;;
19446;SDS011;9862;49.462;11.054;2023-02-27T01:30:03;3.58;;;1.50;;
19446;SDS011;9862;49.462;11.054;2023-02-27T01:32:31;4.25;;;1.63;;
19446;SDS011;9862;49.462;11.054;2023-02-27T01:34:57;4.70;;;1.63;;
19446;SDS011;9862;49.462;11.054;2023-02-27T01:37:24;3.85;;;2.20;;
19446;SDS011;9862;49.462;11.054;2023-02-27T01:39:52;3.75;;;1.50;;
19446;SDS011;9862;49.462;11.054;2023-02-27T01:42:19;2.30;;;1.27;;
19446;SDS011;9862;49.462;11.054;2023-02-27T01:45:01;5.00;;;1.83;;
19446;SDS011;9862;49.462;11.054;2023-02-27T01:47:44;3.28;;;1.42;;
19446;SDS011;9862;49.462;11.054;2023-02-27T01:50:13;4.47;;;1.80;;
19446;SDS011;9862;49.462;11.054;2023-02-27T01:52:42;8.63;;;3.67;;
19446;SDS011;9862;49.462;11.054;2023-02-27T01:55:12;3.47;;;2.05;;
19446;SDS011;9862;49.462;11.054;2023-02-27T01:57:40;5.32;;;2.58;;
19446;SDS011;9862;49.462;11.054;2023-02-27T02:00:08;10.60;;;3.90;;
19446;SDS011;9862;49.462;11.054;2023-02-27T02:02:36;6.20;;;2.13;;
19446;SDS011;9862;49.462;11.054;2023-02-27T02:05:05;2.53;;;1.50;;
19446;SDS011;9862;49.462;11.054;2023-02-27T02:07:33;7.68;;;2.95;;
19446;SDS011;9862;49.462;11.054;2023-02-27T02:10:02;11.25;;;2.85;;
19446;SDS011;9862;49.462;11.054;2023-02-27T02:12:32;2.22;;;1.77;;
19446;SDS011;9862;49.462;11.054;2023-02-27T02:15:00;2.50;;;1.38;;
19446;SDS011;9862;49.462;11.054;2023-02-27T02:17:29;4.18;;;1.48;;
19446;SDS011;9862;49.462;11.054;2023-02-27T02:26:10;17.15;;;7.72;;
19446;SDS011;9862;49.462;11.054;2023-02-27T02:29:04;13.85;;;5.95;;
19446;SDS011;9862;49.462;11.054;2023-02-27T02:41:13;5.38;;;2.60;;
19446;SDS011;9862;49.462;11.054;2023-02-27T02:43:52;9.27;;;3.35;;
19446;SDS011;9862;49.462;11.054;2023-02-27T02:46:28;7.07;;;2.60;;
19446;SDS011;9862;49.462;11.054;2023-02-27T02:49:02;9.20;;;2.80;;
19446;SDS011;9862;49.462;11.054;2023-02-27T02:51:38;6.63;;;2.80;;
19446;SDS011;9862;49.462;11.054;2023-02-27T02:54:13;7.22;;;2.55;;
19446;SDS011;9862;49.462;11.054;2023-02-27T02:56:43;4.20;;;2.78;;
19446;SDS011;9862;49.462;11.054;2023-02-27T02:59:16;7.78;;;2.80;;
19446;SDS011;9862;49.462;11.054;2023-02-27T03:01:48;5.95;;;2.78;;
19446;SDS011;9862;49.462;11.054;2023-02-27T03:04:19;4.95;;;2.78;;
19446;SDS011;9862;49.462;11.054;2023-02-27T03:06:50;3.63;;;2.20;;
19446;SDS011;9862;49.462;11.054;2023-02-27T03:09:22;8.50;;;3.20;;
19446;SDS011;9862;49.462;11.054;2023-02-27T03:11:56;18.40;;;7.05;;
19446;SDS011;9862;49.462;11.054;2023-02-27T03:14:25;19.17;;;7.30;;
19446;SDS011;9862;49.462;11.054;2023-02-27T03:16:57;20.67;;;6.18;;
19446;SDS011;9862;49.462;11.054;2023-02-27T03:19:30;701.05;;;266.40;;
19446;SDS011;9862;49.462;11.054;2023-02-27T03:22:04;532.25;;;186.52;;
19446;SDS011;9862;49.462;11.054;2023-02-27T03:24:36;243.65;;;83.72;;
19446;SDS011;9862;49.462;11.054;2023-02-27T03:27:07;107.55;;;38.42;;
19446;SDS011;9862;49.462;11.054;2023-02-27T03:29:36;44.35;;;14.70;;
19446;SDS011;9862;49.462;11.054;2023-02-27T03:32:09;9.60;;;4.75;;
19446;SDS011;9862;49.462;11.054;2023-02-27T03:34:41;3.85;;;1.98;;
19446;SDS011;9862;49.462;11.054;2023-02-27T03:37:11;8.13;;;3.58;;
19446;SDS011;9862;49.462;11.054;2023-02-27T03:39:48;7.25;;;3.67;;
19446;SDS011;9862;49.462;11.054;2023-02-27T03:42:19;7.18;;;2.63;;
19446;SDS011;9862;49.462;11.054;2023-02-27T03:44:53;5.82;;;2.70;;
19446;SDS011;9862;49.462;11.054;2023-02-27T03:47:24;5.82;;;2.72;;
19446;SDS011;9862;49.462;11.054;2023-02-27T03:49:51;3.72;;;1.50;;
19446;SDS011;9862;49.462;11.054;2023-02-27T03:52:18;3.90;;;2.20;;
19446;SDS011;9862;49.462;11.054;2023-02-27T03:54:49;3.40;;;1.83;;
19446;SDS011;9862;49.462;11.054;2023-02-27T03:57:20;4.15;;;1.98;;
19446;SDS011;9862;49.462;11.054;2023-02-27T03:59:47;4.07;;;2.03;;
19446;SDS011;9862;49.462;11.054;2023-02-27T04:02:14;2.65;;;1.55;;
19446;SDS011;9862;49.462;11.054;2023-02-27T04:04:41;3.78;;;2.30;;
19446;SDS011;9862;49.462;11.054;2023-02-27T04:07:10;6.95;;;3.53;;
19446;SDS011;9862;49.462;11.054;2023-02-27T04:09:55;6.65;;;2.92;;
19446;SDS011;9862;49.462;11.054;2023-02-27T04:12:36;5.60;;;2.28;;
19446;SDS011;9862;49.462;11.054;2023-02-27T04:15:19;2.00;;;1.55;;
19446;SDS011;9862;49.462;11.054;2023-02-27T04:17:55;2.65;;;1.60;;
19446;SDS011;9862;49.462;11.054;2023-02-27T04:20:36;3.03;;;1.80;;
19446;SDS011;9862;49.462;11.054;2023-02-27T04:23:08;2.22;;;1.50;;
19446;SDS011;9862;49.462;11.054;2023-02-27T04:25:51;2.40;;;1.70;;
19446;SDS011;9862;49.462;11.054;2023-02-27T04:28:26;3.13;;;1.67;;
19446;SDS011;9862;49.462;11.054;2023-02-27T04:31:01;11.55;;;5.63;;
19446;SDS011;9862;49.462;11.054;2023-02-27T04:33:39;14.68;;;7.72;;
19446;SDS011;9862;49.462;11.054;2023-02-27T04:36:10;4.97;;;2.38;;
19446;SDS011;9862;49.462;11.054;2023-02-27T04:38:43;2.15;;;1.70;;
19446;SDS011;9862;49.462;11.054;2023-02-27T04:41:17;3.60;;;1.90;;
19446;SDS011;9862;49.462;11.054;2023-02-27T04:43:48;4.78;;;2.10;;
19446;SDS011;9862;49.462;11.054;2023-02-27T04:46:17;4.57;;;2.20;;
19446;SDS011;9862;49.462;11.054;2023-02-27T04:48:48;3.75;;;1.90;;
19446;SDS011;9862;49.462;11.054;2023-02-27T04:51:19;4.97;;;2.40;;
19446;SDS011;9862;49.462;11.054;2023-02-27T04:53:51;3.28;;;1.95;;
19446;SDS011;9862;49.462;11.054;2023-02-27T04:56:24;5.20;;;1.65;;
19446;SDS011;9862;49.462;11.054;2023-02-27T04:58:56;2.80;;;1.52;;
19446;SDS011;9862;49.462;11.054;2023-02-27T05:01:27;3.20;;;1.83;;
19446;SDS011;9862;49.462;11.054;2023-02-27T05:03:59;6.68;;;2.10;;
19446;SDS011;9862;49.462;11.054;2023-02-27T05:06:28;3.35;;;1.58;;
19446;SDS011;9862;49.462;11.054;2023-02-27T05:08:58;5.95;;;2.00;;
19446;SDS011;9862;49.462;11.054;2023-02-27T05:11:33;2.22;;;1.60;;
19446;SDS011;9862;49.462;11.054;2023-02-27T05:14:07;5.22;;;2.15;;
19446;SDS011;9862;49.462;11.054;2023-02-27T05:16:40;4.03;;;2.08;;
19446;SDS011;9862;49.462;11.054;2023-02-27T05:19:11;2.83;;;2.03;;
19446;SDS011;9862;49.462;11.054;2023-02-27T05:21:39;3.47;;;1.83;;
19446;SDS011;9862;49.462;11.054;2023-02-27T05:24:10;2.97;;;2.10;;
19446;SDS011;9862;49.462;11.054;2023-02-27T05:26:56;4.80;;;1.77;;
19446;SDS011;9862;49.462;11.054;2023-02-27T05:29:33;4.22;;;1.80;;
19446;SDS011;9862;49.462;11.054;2023-02-27T05:32:10;6.18;;;2.10;;
19446;SDS011;9862;49.462;11.054;2023-02-27T05:34:45;5.25;;;2.22;;
19446;SDS011;9862;49.462;11.054;2023-02-27T05:37:17;4.45;;;2.22;;
19446;SDS011;9862;49.462;11.054;2023-02-27T05:39:48;9.15;;;2.95;;
19446;SDS011;9862;49.462;11.054;2023-02-27T05:42:20;5.88;;;3.10;;
19446;SDS011;9862;49.462;11.054;2023-02-27T05:44:52;5.63;;;2.70;;
19446;SDS011;9862;49.462;11.054;2023-02-27T05:47:22;8.30;;;3.05;;
19446;SDS011;9862;49.462;11.054;2023-02-27T05:49:54;6.07;;;2.65;;
19446;SDS011;9862;49.462;11.054;2023-02-27T05:52:24;6.07;;;3.28;;
19446;SDS011;9862;49.462;11.054;2023-02-27T05:54:52;6.07;;;2.63;;
19446;SDS011;9862;49.462;11.054;2023-02-27T05:57:28;5.28;;;2.97;;
19446;SDS011;9862;49.462;11.054;2023-02-27T05:59:58;6.00;;;2.92;;
19446;SDS011;9862;49.462;11.054;2023-02-27T06:02:31;4.75;;;2.95;;
19446;SDS011;9862;49.462;11.054;2023-02-27T06:04:57;8.27;;;3.95;;
19446;SDS011;9862;49.462;11.054;2023-02-27T06:07:24;32.97;;;13.20;;
19446;SDS011;9862;49.462;11.054;2023-02-27T06:09:51;48.88;;;19.70;;
19446;SDS011;9862;49.462;11.054;2023-02-27T06:12:17;78.43;;;30.95;;
19446;SDS011;9862;49.462;11.054;2023-02-27T06:14:45;28.35;;;13.23;;
19446;SDS011;9862;49.462;11.054;2023-02-27T06:17:12;10.88;;;6.47;;
19446;SDS011;9862;49.462;11.054;2023-02-27T06:19:38;9.13;;;4.13;;
19446;SDS011;9862;49.462;11.054;2023-02-27T06:22:05;6.47;;;3.65;;
19446;SDS011;9862;49.462;11.054;2023-02-27T06:24:31;10.65;;;4.13;;
19446;SDS011;9862;49.462;11.054;2023-02-27T06:26:58;7.45;;;4.30;;
19446;SDS011;9862;49.462;11.054;2023-02-27T06:29:24;6.43;;;3.95;;
19446;SDS011;9862;49.462;11.054;2023-02-27T06:31:52;11.55;;;4.25;;
19446;SDS011;9862;49.462;11.054;2023-02-27T06:34:19;8.27;;;4.78;;
19446;SDS011;9862;49.462;11.054;2023-02-27T06:36:45;10.35;;;4.40;;
19446;SDS011;9862;49.462;11.054;2023-02-27T06:39:12;7.70;;;4.05;;
19446;SDS011;9862;49.462;11.054;2023-02-27T06:41:39;5.15;;;3.60;;
19446;SDS011;9862;49.462;11.054;2023-02-27T06:44:05;6.72;;;3.90;;
19446;SDS011;9862;49.462;11.054;2023-02-27T06:46:32;9.57;;;3.88;;
19446;SDS011;9862;49.462;11.054;2023-02-27T06:49:00;11.82;;;6.47;;
19446;SDS011;9862;49.462;11.054;2023-02-27T06:51:26;23.38;;;10.38;;
19446;SDS011;9862;49.462;11.054;2023-02-27T06:53:53;10.25;;;4.53;;
19446;SDS011;9862;49.462;11.054;2023-02-27T06:56:19;6.30;;;3.92;;
19446;SDS011;9862;49.462;11.054;2023-02-27T06:58:46;7.68;;;3.38;;
19446;SDS011;9862;49.462;11.054;2023-02-27T07:01:12;7.07;;;3.95;;
19446;SDS011;9862;49.462;11.054;2023-02-27T07:03:39;8.63;;;4.30;;
19446;SDS011;9862;49.462;11.054;2023-02-27T07:06:07;9.27;;;4.20;;
19446;SDS011;9862;49.462;11.054;2023-02-27T07:08:34;12.50;;;5.70;;
19446;SDS011;9862;49.462;11.054;2023-02-27T07:11:00;9.45;;;4.40;;
19446;SDS011;9862;49.462;11.054;2023-02-27T07:13:27;6.40;;;3.67;;
19446;SDS011;9862;49.462;11.054;2023-02-27T07:15:53;7.20;;;3.63;;
19446;SDS011;9862;49.462;11.054;2023-02-27T07:18:20;6.30;;;3.30;;
19446;SDS011;9862;49.462;11.054;2023-02-27T07:20:48;5.72;;;3.22;;
19446;SDS011;9862;49.462;11.054;2023-02-27T07:23:17;8.25;;;3.30;;
19446;SDS011;9862;49.462;11.054;2023-02-27T07:25:45;6.60;;;2.80;;
19446;SDS011;9862;49.462;11.054;2023-02-27T07:28:12;5.72;;;2.78;;
19446;SDS011;9862;49.462;11.054;2023-02-27T07:30:39;5.43;;;3.05;;
19446;SDS011;9862;49.462;11.054;2023-02-27T07:33:06;5.30;;;3.42;;
19446;SDS011;9862;49.462;11.054;2023-02-27T07:35:33;7.97;;;3.05;;
19446;SDS011;9862;49.462;11.054;2023-02-27T07:38:00;8.70;;;3.10;;
19446;SDS011;9862;49.462;11.054;2023-02-27T07:40:28;7.45;;;3.45;;
19446;SDS011;9862;49.462;11.054;2023-02-27T07:42:55;11.75;;;4.80;;
19446;SDS011;9862;49.462;11.054;2023-02-27T07:45:22;69.00;;;26.17;;
19446;SDS011;9862;49.462;11.054;2023-02-27T07:47:48;8.77;;;3.38;;
19446;SDS011;9862;49.462;11.054;2023-02-27T07:50:15;5.28;;;2.92;;
19446;SDS011;9862;49.462;11.054;2023-02-27T07:52:42;3.97;;;2.30;;
19446;SDS011;9862;49.462;11.054;2023-02-27T07:55:10;4.60;;;2.58;;
19446;SDS011;9862;49.462;11.054;2023-02-27T07:57:39;4.32;;;2.70;;
19446;SDS011;9862;49.462;11.054;2023-02-27T08:00:06;5.70;;;2.45;;
19446;SDS011;9862;49.462;11.054;2023-02-27T08:02:34;4.55;;;2.60;;
19446;SDS011;9862;49.462;11.054;2023-02-27T08:05:01;4.82;;;2.80;;
19446;SDS011;9862;49.462;11.054;2023-02-27T08:07:27;5.97;;;2.90;;
19446;SDS011;9862;49.462;11.054;2023-02-27T08:09:54;5.85;;;2.60;;
19446;SDS011;9862;49.462;11.054;2023-02-27T08:12:20;6.93;;;2.45;;
19446;SDS011;9862;49.462;11.054;2023-02-27T08:14:48;4.68;;;2.70;;
19446;SDS011;9862;49.462;11.054;2023-02-27T08:17:15;4.10;;;2.58;;
19446;SDS011;9862;49.462;11.054;2023-02-27T08:19:41;6.95;;;2.65;;
19446;SDS011;9862;49.462;11.054;2023-02-27T08:22:08;4.65;;;2.30;;
19446;SDS011;9862;49.462;11.054;2023-02-27T08:24:36;5.80;;;2.10;;
19446;SDS011;9862;49.462;11.054;2023-02-27T08:27:02;2.92;;;2.20;;
19446;SDS011;9862;49.462;11.054;2023-02-27T08:29:29;3.35;;;2.33;;
19446;SDS011;9862;49.462;11.054;2023-02-27T08:31:58;5.13;;;2.55;;
19446;SDS011;9862;49.462;11.054;2023-02-27T08:34:26;3.13;;;1.85;;
19446;SDS011;9862;49.462;11.054;2023-02-27T08:36:52;3.17;;;2.28;;
19446;SDS011;9862;49.462;11.054;2023-02-27T08:39:19;3.17;;;2.20;;
19446;SDS011;9862;49.462;11.054;2023-02-27T08:41:48;4.35;;;2.28;;
19446;SDS011;9862;49.462;11.054;2023-02-27T08:44:14;5.38;;;1.95;;
19446;SDS011;9862;49.462;11.054;2023-02-27T08:46:41;5.05;;;1.77;;
19446;SDS011;9862;49.462;11.054;2023-02-27T08:49:09;3.65;;;1.85;;
19446;SDS011;9862;49.462;11.054;2023-02-27T08:51:35;3.42;;;1.73;;
19446;SDS011;9862;49.462;11.054;2023-02-27T08:54:02;4.68;;;2.10;;
19446;SDS011;9862;49.462;11.054;2023-02-27T08:56:29;23.13;;;8.23;;
19446;SDS011;9862;49.462;11.054;2023-02-27T08:58:57;3.70;;;1.88;;
19446;SDS011;9862;49.462;11.054;2023-02-27T09:01:24;2.92;;;1.60;;
19446;SDS011;9862;49.462;11.054;2023-02-27T09:03:55;3.58;;;1.50;;
19446;SDS011;9862;49.462;11.054;2023-02-27T09:06:23;4.18;;;1.83;;
19446;SDS011;9862;49.462;11.054;2023-02-27T09:08:50;4.13;;;1.60;;
19446;SDS011;9862;49.462;11.054;2023-02-27T09:11:16;2.97;;;1.65;;
19446;SDS011;9862;49.462;11.054;2023-02-27T09:13:43;2.85;;;1.58;;
19446;SDS011;9862;49.462;11.054;2023-02-27T09:16:09;2.10;;;1.67;;
19446;SDS011;9862;49.462;11.054;2023-02-27T09:18:37;1.98;;;1.50;;
19446;SDS011;9862;49.462;11.054;2023-02-27T09:21:04;2.97;;;1.77;;
19446;SDS011;9862;49.462;11.054;2023-02-27T09:23:32;2.72;;;1.70;;
19446;SDS011;9862;49.462;11.054;2023-02-27T09:25:58;5.35;;;2.05;;
19446;SDS011;9862;49.462;11.054;2023-02-27T09:28:25;5.25;;;1.63;;
19446;SDS011;9862;49.462;11.054;2023-02-27T09:30:52;5.75;;;1.55;;
19446;SDS011;9862;49.462;11.054;2023-02-27T09:33:18;4.70;;;2.15;;
19446;SDS011;9862;49.462;11.054;2023-02-27T09:35:45;4.65;;;1.50;;
19446;SDS011;9862;49.462;11.054;2023-02-27T09:38:11;3.65;;;1.70;;
19446;SDS011;9862;49.462;11.054;2023-02-27T09:40:40;5.20;;;1.77;;
19446;SDS011;9862;49.462;11.054;2023-02-27T09:43:08;2.47;;;1.70;;
19446;SDS011;9862;49.462;11.054;2023-02-27T09:45:38;4.53;;;1.85;;
19446;SDS011;9862;49.462;11.054;2023-02-27T09:48:07;3.20;;;1.52;;
19446;SDS011;9862;49.462;11.054;2023-02-27T09:50:41;4.57;;;1.33;;
19446;SDS011;9862;49.462;11.054;2023-02-27T09:53:11;6.50;;;1.60;;
19446;SDS011;9862;49.462;11.054;2023-02-27T09:55:42;5.25;;;1.40;;
19446;SDS011;9862;49.462;11.054;2023-02-27T09:58:13;4.82;;;1.70;;
19446;SDS011;9862;49.462;11.054;2023-02-27T10:00:52;2.55;;;1.63;;
19446;SDS011;9862;49.462;11.054;2023-02-27T10:03:29;2.80;;;1.42;;
19446;SDS011;9862;49.462;11.054;2023-02-27T10:06:17;4.15;;;1.40;;
19446;SDS011;9862;49.462;11.054;2023-02-27T10:08:52;2.58;;;1.80;;
19446;SDS011;9862;49.462;11.054;2023-02-27T10:11:31;3.15;;;1.17;;
19446;SDS011;9862;49.462;11.054;2023-02-27T10:14:05;3.70;;;1.48;;
19446;SDS011;9862;49.462;11.054;2023-02-27T10:16:42;7.38;;;1.52;;
19446;SDS011;9862;49.462;11.054;2023-02-27T10:19:12;2.85;;;1.30;;
19446;SDS011;9862;49.462;11.054;2023-02-27T10:21:42;2.90;;;1.05;;
19446;SDS011;9862;49.462;11.054;2023-02-27T10:24:16;3.95;;;1.50;;
19446;SDS011;9862;49.462;11.054;2023-02-27T10:26:53;3.22;;;1.20;;
19446;SDS011;9862;49.462;11.054;2023-02-27T10:29:23;2.75;;;1.70;;
19446;SDS011;9862;49.462;11.054;2023-02-27T10:31:55;7.80;;;2.38;;
19446;SDS011;9862;49.462;11.054;2023-02-27T10:34:26;3.42;;;1.38;;
19446;SDS011;9862;49.462;11.054;2023-02-27T10:36:57;2.25;;;1.25;;
19446;SDS011;9862;49.462;11.054;2023-02-27T10:39:25;2.72;;;1.10;;
19446;SDS011;9862;49.462;11.054;2023-02-27T10:41:55;1.75;;;1.10;;
19446;SDS011;9862;49.462;11.054;2023-02-27T10:44:27;3.92;;;1.30;;
19446;SDS011;9862;49.462;11.054;2023-02-27T10:46:55;2.53;;;1.52;;
19446;SDS011;9862;49.462;11.054;2023-02-27T10:49:21;2.67;;;1.35;;
19446;SDS011;9862;49.462;11.054;2023-02-27T10:52:02;1.80;;;1.15;;
19446;SDS011;9862;49.462;11.054;2023-02-27T10:54:31;3.05;;;1.23;;
19446;SDS011;9862;49.462;11.054;2023-02-27T10:56:59;3.58;;;1.48;;
19446;SDS011;9862;49.462;11.054;2023-02-27T10:59:28;2.75;;;1.23;;
19446;SDS011;9862;49.462;11.054;2023-02-27T11:01:58;3.60;;;1.17;;
19446;SDS011;9862;49.462;11.054;2023-02-27T11:04:30;5.10;;;1.33;;
19446;SDS011;9862;49.462;11.054;2023-02-27T11:06:59;2.75;;;1.20;;
19446;SDS011;9862;49.462;11.054;2023-02-27T11:09:28;5.90;;;2.95;;
19446;SDS011;9862;49.462;11.054;2023-02-27T11:12:09;3.85;;;1.60;;
19446;SDS011;9862;49.462;11.054;2023-02-27T11:14:46;1.38;;;1.00;;
19446;SDS011;9862;49.462;11.054;2023-02-27T11:17:19;1.15;;;1.02;;
19446;SDS011;9862;49.462;11.054;2023-02-27T11:19:48;4.65;;;1.20;;
19446;SDS011;9862;49.462;11.054;2023-02-27T11:22:15;2.30;;;1.25;;
19446;SDS011;9862;49.462;11.054;2023-02-27T11:24:44;1.48;;;1.00;;
19446;SDS011;9862;49.462;11.054;2023-02-27T11:27:20;5.82;;;1.92;;
19446;SDS011;9862;49.462;11.054;2023-02-27T11:29:56;3.25;;;1.23;;
19446;SDS011;9862;49.462;11.054;2023-02-27T11:32:25;3.90;;;1.30;;
19446;SDS011;9862;49.462;11.054;2023-02-27T11:34:56;1.90;;;1.20;;
19446;SDS011;9862;49.462;11.054;2023-02-27T11:37:25;2.45;;;1.30;;
19446;SDS011;9862;49.462;11.054;2023-02-27T11:39:58;1.35;;;0.90;;
19446;SDS011;9862;49.462;11.054;2023-02-27T11:42:32;1.55;;;1.00;;
19446;SDS011;9862;49.462;11.054;2023-02-27T11:45:02;2.03;;;1.02;;
19446;SDS011;9862;49.462;11.054;2023-02-27T11:47:31;4.00;;;1.52;;
19446;SDS011;9862;49.462;11.054;2023-02-27T11:50:06;1.58;;;1.48;;
19446;SDS011;9862;49.462;11.054;2023-02-27T11:52:41;1.08;;;0.98;;
19446;SDS011;9862;49.462;11.054;2023-02-27T11:55:16;3.13;;;1.38;;
19446;SDS011;9862;49.462;11.054;2023-02-27T11:57:47;2.10;;;1.30;;
19446;SDS011;9862;49.462;11.054;2023-02-27T12:00:19;5.90;;;1.38;;
19446;SDS011;9862;49.462;11.054;2023-02-27T12:02:51;3.13;;;1.60;;
19446;SDS011;9862;49.462;11.054;2023-02-27T12:05:24;2.95;;;1.25;;
19446;SDS011;9862;49.462;11.054;2023-02-27T12:07:55;1.52;;;1.40;;
19446;SDS011;9862;49.462;11.054;2023-02-27T12:10:27;2.15;;;1.05;;
19446;SDS011;9862;49.462;11.054;2023-02-27T12:12:58;2.00;;;1.20;;
19446;SDS011;9862;49.462;11.054;2023-02-27T12:15:29;2.83;;;1.40;;
19446;SDS011;9862;49.462;11.054;2023-02-27T12:18:07;1.95;;;1.35;;
19446;SDS011;9862;49.462;11.054;2023-02-27T12:20:43;4.45;;;2.05;;
19446;SDS011;9862;49.462;11.054;2023-02-27T12:23:19;2.72;;;1.50;;
19446;SDS011;9862;49.462;11.054;2023-02-27T12:25:52;4.05;;;1.50;;
19446;SDS011;9862;49.462;11.054;2023-02-27T12:28:29;2.92;;;1.30;;
19446;SDS011;9862;49.462;11.054;2023-02-27T12:34:05;3.40;;;1.30;;
19446;SDS011;9862;49.462;11.054;2023-02-27T12:36:43;2.83;;;1.20;;
19446;SDS011;9862;49.462;11.054;2023-02-27T12:39:14;3.20;;;1.10;;
19446;SDS011;9862;49.462;11.054;2023-02-27T12:41:47;2.00;;;1.42;;
19446;SDS011;9862;49.462;11.054;2023-02-27T12:44:32;2.97;;;1.40;;
19446;SDS011;9862;49.462;11.054;2023-02-27T12:47:11;3.28;;;1.58;;
19446;SDS011;9862;49.462;11.054;2023-02-27T12:49:47;3.03;;;1.50;;
19446;SDS011;9862;49.462;11.054;2023-02-27T12:52:25;2.05;;;1.42;;
19446;SDS011;9862;49.462;11.054;2023-02-27T12:55:05;2.40;;;1.20;;
19446;SDS011;9862;49.462;11.054;2023-02-27T12:57:41;3.55;;;1.80;;
19446;SDS011;9862;49.462;11.054;2023-02-27T13:00:31;1.90;;;1.20;;
19446;SDS011;9862;49.462;11.054;2023-02-27T13:03:08;2.13;;;1.48;;
19446;SDS011;9862;49.462;11.054;2023-02-27T13:05:41;2.85;;;1.30;;
19446;SDS011;9862;49.462;11.054;2023-02-27T13:11:22;2.75;;;1.48;;
19446;SDS011;9862;49.462;11.054;2023-02-27T13:13:57;2.10;;;1.30;;
19446;SDS011;9862;49.462;11.054;2023-02-27T13:16:30;2.08;;;1.20;;
19446;SDS011;9862;49.462;11.054;2023-02-27T13:19:03;3.10;;;1.80;;
19446;SDS011;9862;49.462;11.054;2023-02-27T13:21:32;1.92;;;1.35;;
19446;SDS011;9862;49.462;11.054;2023-02-27T13:24:12;1.85;;;1.00;;
19446;SDS011;9862;49.462;11.054;2023-02-27T13:26:45;1.88;;;1.40;;
19446;SDS011;9862;49.462;11.054;2023-02-27T13:29:19;3.05;;;1.60;;
19446;SDS011;9862;49.462;11.054;2023-02-27T13:31:51;2.47;;;1.60;;
19446;SDS011;9862;49.462;11.054;2023-02-27T13:34:25;2.70;;;1.55;;
19446;SDS011;9862;49.462;11.054;2023-02-27T13:36:56;2.00;;;1.23;;
19446;SDS011;9862;49.462;11.054;2023-02-27T13:39:37;3.50;;;1.20;;
19446;SDS011;9862;49.462;11.054;2023-02-27T13:48:41;2.85;;;1.27;;
19446;SDS011;9862;49.462;11.054;2023-02-27T13:57:19;2.58;;;1.50;;
19446;SDS011;9862;49.462;11.054;2023-02-27T13:59:50;1.85;;;1.17;;
19446;SDS011;9862;49.462;11.054;2023-02-27T14:02:24;2.60;;;1.10;;
19446;SDS011;9862;49.462;11.054;2023-02-27T14:05:06;1.38;;;0.63;;
19446;SDS011;9862;49.462;11.054;2023-02-27T14:07:46;1.50;;;0.93;;
19446;SDS011;9862;49.462;11.054;2023-02-27T14:10:23;3.03;;;1.30;;
19446;SDS011;9862;49.462;11.054;2023-02-27T14:12:52;1.75;;;1.10;;
19446;SDS011;9862;49.462;11.054;2023-02-27T14:24:32;1.75;;;0.90;;
19446;SDS011;9862;49.462;11.054;2023-02-27T14:27:03;1.95;;;1.10;;
19446;SDS011;9862;49.462;11.054;2023-02-27T14:29:42;2.92;;;1.30;;
19446;SDS011;9862;49.462;11.054;2023-02-27T14:32:16;1.58;;;1.20;;
19446;SDS011;9862;49.462;11.054;2023-02-27T14:34:44;2.03;;;1.17;;
19446;SDS011;9862;49.462;11.054;2023-02-27T14:37:13;1.13;;;1.02;;
19446;SDS011;9862;49.462;11.054;2023-02-27T14:39:42;3.05;;;1.50;;
19446;SDS011;9862;49.462;11.054;2023-02-27T14:42:21;3.40;;;1.30;;
19446;SDS011;9862;49.462;11.054;2023-02-27T14:44:58;1.95;;;1.25;;
19446;SDS011;9862;49.462;11.054;2023-02-27T14:47:25;2.30;;;1.40;;
19446;SDS011;9862;49.462;11.054;2023-02-27T14:49:56;2.85;;;1.80;;
19446;SDS011;9862;49.462;11.054;2023-02-27T14:52:24;3.35;;;1.73;;
19446;SDS011;9862;49.462;11.054;2023-02-27T14:55:04;4.15;;;1.50;;
19446;SDS011;9862;49.462;11.054;2023-02-27T14:57:37;1.88;;;1.10;;
19446;SDS011;9862;49.462;11.054;2023-02-27T15:00:04;4.05;;;1.40;;
19446;SDS011;9862;49.462;11.054;2023-02-27T15:02:32;2.20;;;1.23;;
19446;SDS011;9862;49.462;11.054;2023-02-27T15:05:11;1.50;;;1.15;;
19446;SDS011;9862;49.462;11.054;2023-02-27T15:07:43;2.03;;;1.30;;
19446;SDS011;9862;49.462;11.054;2023-02-27T15:10:15;1.70;;;1.20;;
19446;SDS011;9862;49.462;11.054;2023-02-27T15:12:47;2.20;;;1.58;;
19446;SDS011;9862;49.462;11.054;2023-02-27T15:15:15;3.00;;;1.50;;
19446;SDS011;9862;49.462;11.054;2023-02-27T15:17:44;2.13;;;1.45;;
19446;SDS011;9862;49.462;11.054;2023-02-27T15:20:21;5.22;;;1.70;;
19446;SDS011;9862;49.462;11.054;2023-02-27T15:22:50;3.03;;;1.73;;
19446;SDS011;9862;49.462;11.054;2023-02-27T15:25:27;2.70;;;1.67;;
19446;SDS011;9862;49.462;11.054;2023-02-27T15:27:56;3.85;;;1.50;;
19446;SDS011;9862;49.462;11.054;2023-02-27T15:30:26;3.50;;;1.58;;
19446;SDS011;9862;49.462;11.054;2023-02-27T15:32:53;1.85;;;1.33;;
19446;SDS011;9862;49.462;11.054;2023-02-27T15:35:21;2.55;;;1.90;;
19446;SDS011;9862;49.462;11.054;2023-02-27T15:37:52;3.75;;;1.58;;
19446;SDS011;9862;49.462;11.054;2023-02-27T15:40:21;2.28;;;1.42;;
19446;SDS011;9862;49.462;11.054;2023-02-27T15:42:49;2.83;;;1.88;;
19446;SDS011;9862;49.462;11.054;2023-02-27T15:45:19;3.58;;;1.52;;
19446;SDS011;9862;49.462;11.054;2023-02-27T15:47:48;1.42;;;1.25;;
19446;SDS011;9862;49.462;11.054;2023-02-27T15:50:22;3.05;;;1.77;;